Time;durP1;ratioP1;P1;durP2;ratioP2;P2;SDS_P1;SDS_P2;PMS_P1;PMS_P2;Temp;Humidity;BMP_temperature;BMP_pressure;BME280_temperature;BME280_humidity;BME280_pressure;Samples;Min_cycle;Max_cycle;Signal;HPM_P1;HPM_P2
2023/04/18 00:00:30;;;;;;;10.40;10.00;;;19.50;58.40;;;;;;5071267;28;20953;-55
2023/04/18 00:02:57;;;;;;;10.60;10.13;;;19.50;58.40;;;;;;5075146;28;20477;-50
2023/04/18 00:05:25;;;;;;;10.17;9.87;;;19.50;58.40;;;;;;5091866;28;20438;-53
2023/04/18 00:07:52;;;;;;;10.60;10.20;;;19.50;58.40;;;;;;5091384;28;20442;-54
2023/04/18 00:10:19;;;;;;;10.30;9.90;;;19.50;58.40;;;;;;5091512;28;21114;-49
2023/04/18 00:12:46;;;;;;;9.93;9.63;;;19.50;58.30;;;;;;5089973;28;20860;-50
2023/04/18 00:15:12;;;;;;;10.73;10.33;;;19.50;58.40;;;;;;5071486;28;20480;-52
2023/04/18 00:17:41;;;;;;;10.00;9.70;;;19.50;58.30;;;;;;5071026;28;20446;-53
2023/04/18 00:20:10;;;;;;;10.03;9.63;;;19.50;58.30;;;;;;5071250;28;20630;-56
2023/04/18 00:22:41;;;;;;;10.70;10.23;;;19.50;58.30;;;;;;5071644;28;20448;-51
2023/04/18 00:25:08;;;;;;;9.60;9.30;;;19.40;58.20;;;;;;5073138;28;20533;-50
2023/04/18 00:27:35;;;;;;;10.43;10.03;;;19.40;58.10;;;;;;5070994;28;20989;-54
2023/04/18 00:30:02;;;;;;;10.40;10.00;;;19.40;58.20;;;;;;5074010;28;20549;-50
2023/04/18 00:32:29;;;;;;;9.77;9.40;;;19.40;58.20;;;;;;5074963;28;20475;-53
2023/04/18 00:34:58;;;;;;;10.10;9.77;;;19.40;58.10;;;;;;5075670;28;20450;-50
2023/04/18 00:37:25;;;;;;;9.93;9.63;;;19.40;58.10;;;;;;5089499;28;20569;-53
2023/04/18 00:39:52;;;;;;;10.20;9.80;;;19.40;58.00;;;;;;5094803;28;20512;-52
2023/04/18 00:42:20;;;;;;;10.43;10.03;;;19.40;58.00;;;;;;5095127;28;20533;-50
2023/04/18 00:44:47;;;;;;;10.47;9.87;;;19.40;57.90;;;;;;5076565;28;20533;-50
2023/04/18 00:47:16;;;;;;;10.07;9.60;;;19.40;58.00;;;;;;5074556;28;20435;-52
2023/04/18 00:49:43;;;;;;;10.27;9.87;;;19.40;57.90;;;;;;5085276;28;20982;-50
2023/04/18 00:52:11;;;;;;;10.23;9.83;;;19.40;57.90;;;;;;5094892;28;20478;-51
2023/04/18 00:54:39;;;;;;;9.93;9.63;;;19.40;57.90;;;;;;5077826;28;20478;-50
2023/04/18 00:57:06;;;;;;;9.30;9.00;;;19.40;57.90;;;;;;5074528;28;20894;-54
2023/04/18 00:59:34;;;;;;;10.27;9.77;;;19.40;57.80;;;;;;5074360;28;20467;-51
2023/04/18 01:02:02;;;;;;;10.57;10.17;;;19.40;57.80;;;;;;5074491;28;20827;-50
2023/04/18 01:04:30;;;;;;;9.80;9.47;;;19.40;57.70;;;;;;5089407;28;20446;-50
2023/04/18 01:06:58;;;;;;;10.30;10.00;;;19.40;57.70;;;;;;5094601;28;20843;-53
2023/04/18 01:09:27;;;;;;;9.73;9.43;;;19.40;57.70;;;;;;5094510;28;20497;-53
2023/04/18 01:11:54;;;;;;;9.80;9.40;;;19.40;57.60;;;;;;5094574;28;20447;-51
2023/04/18 01:14:20;;;;;;;9.57;9.27;;;19.40;57.60;;;;;;5080853;28;20609;-54
2023/04/18 01:16:48;;;;;;;9.70;9.40;;;19.40;57.60;;;;;;5073903;28;20489;-52
2023/04/18 01:19:17;;;;;;;9.93;9.50;;;19.40;57.60;;;;;;5074114;28;20958;-51
2023/04/18 01:21:44;;;;;;;10.17;9.47;;;19.30;57.50;;;;;;5079173;28;20451;-52
2023/04/18 01:24:13;;;;;;;10.53;10.20;;;19.30;57.50;;;;;;5094283;28;20951;-51
2023/04/18 01:26:42;;;;;;;10.33;9.83;;;19.40;57.70;;;;;;5094110;28;20521;-53
2023/04/18 01:29:09;;;;;;;11.00;10.50;;;19.30;57.60;;;;;;5093943;28;20474;-54
2023/04/18 01:31:37;;;;;;;10.17;9.87;;;19.30;57.60;;;;;;5093855;28;20488;-54
2023/04/18 01:34:05;;;;;;;9.70;9.40;;;19.30;57.60;;;;;;5094066;28;20482;-54
2023/04/18 01:36:32;;;;;;;10.37;9.97;;;19.30;57.50;;;;;;5093932;28;20560;-53
2023/04/18 01:38:59;;;;;;;9.53;9.23;;;19.30;57.40;;;;;;5093841;28;20553;-52
2023/04/18 01:41:31;;;;;;;9.97;9.67;;;19.30;57.40;;;;;;5090999;28;20526;-56
2023/04/18 01:43:58;;;;;;;9.87;9.50;;;19.30;57.30;;;;;;5073647;28;20956;-51
2023/04/18 01:46:24;;;;;;;10.17;9.80;;;19.30;57.30;;;;;;5073710;28;20538;-54
2023/04/18 01:48:51;;;;;;;10.33;9.93;;;19.30;57.20;;;;;;5073346;28;20498;-53
2023/04/18 01:51:18;;;;;;;10.80;10.40;;;19.30;57.20;;;;;;5073531;28;20479;-53
2023/04/18 01:53:45;;;;;;;10.30;9.90;;;19.30;57.20;;;;;;5074837;28;20470;-50
2023/04/18 01:56:12;;;;;;;10.93;10.30;;;19.30;57.20;;;;;;5073449;28;20522;-53
2023/04/18 01:58:41;;;;;;;9.90;9.50;;;19.30;57.20;;;;;;5073095;28;20962;-53
2023/04/18 02:01:08;;;;;;;9.90;9.50;;;19.30;57.20;;;;;;5086709;28;20443;-53
2023/04/18 02:03:35;;;;;;;10.53;10.10;;;19.30;57.20;;;;;;5093632;28;20488;-51
2023/04/18 02:06:03;;;;;;;10.00;9.60;;;19.30;57.20;;;;;;5093587;28;20530;-51
2023/04/18 02:08:31;;;;;;;10.80;10.40;;;19.30;57.20;;;;;;5093116;28;20558;-52
2023/04/18 02:11:00;;;;;;;10.40;10.00;;;19.30;57.20;;;;;;5081158;28;20448;-52
2023/04/18 02:13:27;;;;;;;9.90;9.40;;;19.20;57.20;;;;;;5073261;28;20538;-52
2023/04/18 02:15:55;;;;;;;10.20;9.80;;;19.20;57.20;;;;;;5073002;28;20439;-54
2023/04/18 02:18:23;;;;;;;9.97;9.63;;;19.20;57.20;;;;;;5072754;28;20555;-55
2023/04/18 02:20:50;;;;;;;9.93;9.63;;;19.20;57.20;;;;;;5083213;28;20442;-50
2023/04/18 02:23:17;;;;;;;9.80;9.40;;;19.20;57.20;;;;;;5093193;28;20478;-50
2023/04/18 02:25:44;;;;;;;10.17;9.77;;;19.20;57.30;;;;;;5084742;28;20945;-50
2023/04/18 02:28:11;;;;;;;10.67;10.27;;;19.20;57.30;;;;;;5077949;28;20448;-51
2023/04/18 02:30:38;;;;;;;10.87;10.40;;;19.20;57.20;;;;;;5072798;28;20992;-53
2023/04/18 02:33:06;;;;;;;10.40;10.00;;;19.20;57.20;;;;;;5072761;28;20475;-54
2023/04/18 02:35:33;;;;;;;10.63;10.23;;;19.20;57.20;;;;;;5081520;28;20526;-53
2023/04/18 02:38:00;;;;;;;10.27;9.77;;;19.20;57.20;;;;;;5092512;28;20492;-52
2023/04/18 02:40:27;;;;;;;9.73;9.33;;;19.20;57.30;;;;;;5093032;28;20485;-50
2023/04/18 02:42:54;;;;;;;10.17;9.83;;;19.20;57.30;;;;;;5092754;28;20865;-51
2023/04/18 02:45:21;;;;;;;10.60;10.10;;;19.20;57.30;;;;;;5085309;28;20446;-53
2023/04/18 02:47:47;;;;;;;9.93;9.60;;;19.10;57.20;;;;;;5072320;28;20853;-49
2023/04/18 02:50:16;;;;;;;8.77;8.57;;;19.20;57.30;;;;;;5072244;28;21033;-52
2023/04/18 02:52:43;;;;;;;10.20;9.80;;;19.20;57.30;;;;;;5071783;28;20478;-52
2023/04/18 02:55:10;;;;;;;10.17;9.80;;;19.10;57.20;;;;;;5072737;28;20479;-55
2023/04/18 02:57:37;;;;;;;10.63;10.20;;;19.10;57.20;;;;;;5071846;28;20574;-54
2023/04/18 03:00:06;;;;;;;10.50;10.10;;;19.10;57.20;;;;;;5072153;28;20978;-55
2023/04/18 03:02:34;;;;;;;10.47;9.97;;;19.10;57.20;;;;;;5072257;28;20443;-53
2023/04/18 03:05:00;;;;;;;10.17;9.77;;;19.10;57.20;;;;;;5089895;28;20533;-50
2023/04/18 03:07:29;;;;;;;9.83;9.53;;;19.10;57.10;;;;;;5092464;28;20489;-54
2023/04/18 03:09:56;;;;;;;11.30;10.80;;;19.10;57.10;;;;;;5092135;28;20466;-53
2023/04/18 03:12:23;;;;;;;10.13;9.77;;;19.10;57.10;;;;;;5092245;28;20529;-52
2023/04/18 03:14:50;;;;;;;9.40;9.10;;;19.10;57.00;;;;;;5087276;28;20474;-56
2023/04/18 03:17:17;;;;;;;9.33;9.03;;;19.10;57.00;;;;;;5091683;28;20561;-53
2023/04/18 03:19:45;;;;;;;9.77;9.47;;;19.10;57.00;;;;;;5092034;28;20553;-53
2023/04/18 03:22:12;;;;;;;9.90;9.60;;;19.10;57.00;;;;;;5092356;28;20450;-50
2023/04/18 03:24:40;;;;;;;10.10;9.70;;;19.10;57.00;;;;;;5077726;28;20543;-53
2023/04/18 03:27:07;;;;;;;9.50;9.20;;;19.10;57.00;;;;;;5071599;28;20901;-51
2023/04/18 03:29:34;;;;;;;10.37;9.97;;;19.10;57.00;;;;;;5071602;28;20501;-55
2023/04/18 03:32:01;;;;;;;9.70;9.30;;;19.10;57.00;;;;;;5071807;28;20479;-51
2023/04/18 03:34:29;;;;;;;10.10;9.70;;;19.10;57.00;;;;;;5083944;28;20478;-54
2023/04/18 03:36:55;;;;;;;9.97;9.67;;;19.10;57.00;;;;;;5091652;28;20585;-52
2023/04/18 03:39:22;;;;;;;9.60;9.20;;;19.10;57.00;;;;;;5091690;28;20505;-51
2023/04/18 03:41:51;;;;;;;10.60;10.20;;;19.10;56.90;;;;;;5091784;28;20481;-56
2023/04/18 03:44:17;;;;;;;9.83;9.50;;;19.10;56.90;;;;;;5080894;28;20451;-50
2023/04/18 03:46:45;;;;;;;10.33;9.87;;;19.10;56.90;;;;;;5071424;28;20478;-53
2023/04/18 03:49:12;;;;;;;10.13;9.73;;;19.10;56.90;;;;;;5071344;28;20495;-52
2023/04/18 03:51:44;;;;;;;9.53;9.23;;;19.10;56.90;;;;;;5071602;28;20466;-52
2023/04/18 03:54:10;;;;;;;9.60;9.30;;;19.10;56.90;;;;;;5080706;28;20544;-52
2023/04/18 03:56:37;;;;;;;9.30;9.00;;;19.10;56.80;;;;;;5091344;28;20572;-52
2023/04/18 03:59:06;;;;;;;10.10;9.70;;;19.10;56.80;;;;;;5091526;28;20552;-49
2023/04/18 04:01:33;;;;;;;10.77;10.33;;;19.10;56.80;;;;;;5090127;28;20469;-52
2023/04/18 04:04:01;;;;;;;9.87;9.57;;;19.10;56.80;;;;;;5072811;28;20534;-54
2023/04/18 04:06:28;;;;;;;9.77;9.47;;;19.00;56.80;;;;;;5075650;28;20442;-53
2023/04/18 04:08:56;;;;;;;10.00;9.60;;;19.10;56.90;;;;;;5075225;28;20499;-52
2023/04/18 04:11:23;;;;;;;10.93;10.50;;;19.00;56.80;;;;;;5075522;28;20538;-54
2023/04/18 04:13:50;;;;;;;9.80;9.50;;;19.10;57.00;;;;;;5095447;28;20481;-53
2023/04/18 04:16:18;;;;;;;10.20;9.77;;;19.00;57.00;;;;;;5095603;28;20529;-52
2023/04/18 04:18:45;;;;;;;9.47;9.17;;;19.00;57.10;;;;;;5095438;28;20549;-51
2023/04/18 04:21:12;;;;;;;10.50;10.10;;;19.00;57.10;;;;;;5095521;28;20479;-53
2023/04/18 04:23:40;;;;;;;9.97;9.67;;;19.00;57.20;;;;;;5076885;28;20475;-51
2023/04/18 04:26:07;;;;;;;10.00;9.70;;;19.00;57.20;;;;;;5075148;28;20454;-56
2023/04/18 04:28:35;;;;;;;10.13;9.73;;;19.00;57.20;;;;;;5074821;28;20482;-53
2023/04/18 04:31:05;;;;;;;11.17;10.70;;;19.00;57.30;;;;;;5075079;28;20658;-49
2023/04/18 04:33:34;;;;;;;10.40;10.00;;;19.00;57.30;;;;;;5092435;28;20882;-54
2023/04/18 04:36:01;;;;;;;10.07;9.73;;;19.00;57.30;;;;;;5095221;28;20533;-53
2023/04/18 04:38:29;;;;;;;9.90;9.57;;;19.00;57.30;;;;;;5094775;28;20564;-53
2023/04/18 04:40:57;;;;;;;10.80;10.40;;;19.00;57.30;;;;;;5095120;28;20439;-51
2023/04/18 04:43:24;;;;;;;10.77;10.37;;;19.00;57.30;;;;;;5093585;28;20442;-50
2023/04/18 04:45:51;;;;;;;10.57;10.23;;;19.00;57.30;;;;;;5095052;28;20453;-53
2023/04/18 04:48:20;;;;;;;10.37;9.77;;;19.00;57.50;;;;;;5094729;28;20883;-53
2023/04/18 04:50:54;;;;;;;11.50;10.73;;;19.10;57.90;;;;;;5095087;28;20801;-52
2023/04/18 04:53:21;;;;;;;10.67;9.93;;;19.10;58.50;;;;;;5079863;28;20512;-52
2023/04/18 04:55:48;;;;;;;11.63;10.73;;;19.10;59.80;;;;;;5077693;28;20541;-54
2023/04/18 04:58:15;;;;;;;12.47;11.57;;;19.10;62.40;;;;;;5080678;28;20553;-54
2023/04/18 05:00:42;;;;;;;11.93;11.10;;;19.10;64.50;;;;;;5065331;28;20479;-58
2023/04/18 05:03:09;;;;;;;13.43;11.97;;;19.10;65.60;;;;;;5074494;28;20893;-58
2023/04/18 05:05:36;;;;;;;13.27;12.03;;;19.10;66.60;;;;;;5074777;28;20469;-59
2023/04/18 05:08:05;;;;;;;13.73;12.30;;;19.10;67.10;;;;;;5074240;28;20526;-58
2023/04/18 05:10:32;;;;;;;11.67;11.07;;;19.10;66.80;;;;;;5074271;28;20496;-57
2023/04/18 05:12:59;;;;;;;10.83;10.33;;;19.10;66.40;;;;;;5074371;28;20874;-58
2023/04/18 05:15:26;;;;;;;11.53;10.70;;;19.10;65.40;;;;;;5074090;28;21014;-59
2023/04/18 05:17:52;;;;;;;11.60;10.70;;;19.20;64.90;;;;;;5074009;28;20570;-59
2023/04/18 05:20:19;;;;;;;10.90;10.30;;;19.10;64.10;;;;;;5074065;28;20502;-58
2023/04/18 05:22:46;;;;;;;10.87;10.10;;;19.20;63.50;;;;;;5074272;28;20482;-59
2023/04/18 05:25:14;;;;;;;11.73;10.70;;;19.10;63.20;;;;;;5074662;28;20471;-56
2023/04/18 05:27:42;;;;;;;11.73;10.90;;;19.20;62.80;;;;;;5074000;28;20860;-57
2023/04/18 05:30:10;;;;;;;12.50;11.70;;;19.20;62.50;;;;;;5074060;28;21036;-57
2023/04/18 05:32:37;;;;;;;11.80;11.07;;;19.20;62.40;;;;;;5074036;28;20447;-58
2023/04/18 05:35:05;;;;;;;11.40;10.80;;;19.20;62.20;;;;;;5074102;28;20810;-58
2023/04/18 05:37:32;;;;;;;10.53;10.03;;;19.20;62.00;;;;;;5074008;28;20834;-59
2023/04/18 05:39:59;;;;;;;11.10;10.40;;;19.20;61.90;;;;;;5129497;22;20917;-50
2023/04/18 05:42:27;;;;;;;11.60;11.00;;;19.20;62.00;;;;;;5093859;28;20469;-53
2023/04/18 05:44:54;;;;;;;11.13;10.53;;;19.20;61.80;;;;;;5093973;28;20474;-50
2023/04/18 05:47:22;;;;;;;10.87;10.07;;;19.20;61.60;;;;;;5093663;28;20478;-51
2023/04/18 05:49:49;;;;;;;11.00;10.50;;;19.20;61.40;;;;;;5093819;28;20472;-52
2023/04/18 05:52:16;;;;;;;11.50;10.67;;;19.20;61.40;;;;;;5093741;28;20450;-50
2023/04/18 05:54:43;;;;;;;10.70;10.20;;;19.20;61.30;;;;;;5093799;28;20473;-50
2023/04/18 05:57:10;;;;;;;12.43;11.43;;;19.20;61.10;;;;;;5093515;28;20510;-51
2023/04/18 05:59:38;;;;;;;11.17;10.77;;;19.20;60.90;;;;;;5093612;28;20498;-50
2023/04/18 06:02:11;;;;;;;11.57;10.80;;;19.20;60.90;;;;;;5093551;28;20481;-50
2023/04/18 06:04:38;;;;;;;11.07;10.67;;;19.20;60.70;;;;;;5093623;28;20442;-50
2023/04/18 06:07:05;;;;;;;11.90;11.27;;;19.20;60.70;;;;;;5093568;28;20481;-50
2023/04/18 06:09:32;;;;;;;12.17;11.27;;;19.20;60.50;;;;;;5093221;28;20494;-52
2023/04/18 06:12:00;;;;;;;11.80;11.20;;;19.20;60.50;;;;;;5093409;28;20875;-51
2023/04/18 06:14:27;;;;;;;11.80;11.30;;;19.20;60.20;;;;;;5093420;28;20937;-50
2023/04/18 06:16:55;;;;;;;11.60;10.80;;;19.20;60.20;;;;;;5093180;28;20766;-50
2023/04/18 06:19:22;;;;;;;11.60;10.80;;;19.10;60.00;;;;;;5093100;28;20501;-53
2023/04/18 06:21:49;;;;;;;11.73;11.13;;;19.20;60.10;;;;;;5093278;28;20450;-51
2023/04/18 06:24:16;;;;;;;12.37;11.57;;;19.20;59.90;;;;;;5093083;28;20538;-51
2023/04/18 06:26:43;;;;;;;11.30;10.70;;;19.20;59.90;;;;;;5092162;28;20470;-53
2023/04/18 06:29:10;;;;;;;13.30;12.40;;;19.10;59.70;;;;;;5093162;28;20462;-56
2023/04/18 06:31:37;;;;;;;12.37;11.60;;;19.20;59.80;;;;;;5092960;28;20478;-53
2023/04/18 06:34:06;;;;;;;10.67;10.27;;;19.20;59.70;;;;;;5092739;28;20485;-51
2023/04/18 06:36:33;;;;;;;10.70;10.30;;;19.10;59.60;;;;;;5092745;28;20876;-50
2023/04/18 06:39:00;;;;;;;12.03;11.17;;;19.10;59.50;;;;;;5092561;28;20569;-50
2023/04/18 06:41:27;;;;;;;11.57;11.07;;;19.20;59.60;;;;;;5092773;28;20857;-50
2023/04/18 06:43:55;;;;;;;11.40;10.90;;;19.20;59.40;;;;;;5092809;28;20450;-51
2023/04/18 06:46:22;;;;;;;10.67;10.10;;;19.20;59.40;;;;;;5092811;28;20480;-52
2023/04/18 06:48:49;;;;;;;11.20;10.63;;;19.20;59.40;;;;;;5092550;28;20513;-53
2023/04/18 06:51:17;;;;;;;11.13;10.63;;;19.20;59.40;;;;;;5092679;28;20474;-51
2023/04/18 06:53:44;;;;;;;10.70;10.20;;;19.10;59.20;;;;;;5092590;28;20495;-51
2023/04/18 06:56:12;;;;;;;10.43;10.13;;;19.10;59.20;;;;;;5092492;28;20812;-50
2023/04/18 06:58:39;;;;;;;10.97;10.50;;;19.10;59.10;;;;;;5091986;28;20539;-53
2023/04/18 07:01:06;;;;;;;11.57;10.90;;;19.10;59.10;;;;;;5092418;28;20470;-50
2023/04/18 07:03:33;;;;;;;10.87;10.27;;;19.10;59.10;;;;;;5092340;28;20508;-50
2023/04/18 07:06:00;;;;;;;10.50;10.10;;;19.10;59.00;;;;;;5092389;28;20888;-51
2023/04/18 07:08:28;;;;;;;10.50;10.10;;;19.10;58.90;;;;;;5092090;28;20811;-50
2023/04/18 07:10:55;;;;;;;10.30;9.90;;;19.10;58.90;;;;;;5092342;28;20981;-50
2023/04/18 07:13:22;;;;;;;9.90;9.60;;;19.10;58.80;;;;;;5092295;28;20881;-51
2023/04/18 07:15:48;;;;;;;10.50;10.10;;;19.10;58.80;;;;;;5092130;28;20497;-50
2023/04/18 07:18:15;;;;;;;11.47;10.90;;;19.10;58.70;;;;;;5091817;28;20565;-53
2023/04/18 07:20:42;;;;;;;11.53;11.03;;;19.10;58.70;;;;;;5092359;28;20478;-50
2023/04/18 07:23:09;;;;;;;11.43;10.83;;;19.10;58.70;;;;;;5092039;28;20980;-50
2023/04/18 07:25:38;;;;;;;10.90;10.43;;;19.10;58.70;;;;;;5092177;28;20812;-50
2023/04/18 07:28:05;;;;;;;11.37;10.97;;;19.10;58.60;;;;;;5091840;28;20477;-51
2023/04/18 07:30:32;;;;;;;10.80;10.30;;;19.10;58.60;;;;;;5091901;28;20501;-52
2023/04/18 07:32:59;;;;;;;10.90;10.40;;;19.10;58.50;;;;;;5092200;28;20481;-50
2023/04/18 07:35:25;;;;;;;11.40;10.70;;;19.10;58.50;;;;;;5091924;28;20477;-51
2023/04/18 07:37:53;;;;;;;10.77;10.27;;;19.10;59.00;;;;;;5091306;28;20513;-50
2023/04/18 07:40:20;;;;;;;10.97;10.57;;;19.10;58.50;;;;;;5091609;28;20474;-53
2023/04/18 07:42:49;;;;;;;11.33;10.93;;;19.10;58.50;;;;;;5092158;28;20538;-50
2023/04/18 07:45:16;;;;;;;11.30;10.70;;;19.10;58.50;;;;;;5091798;28;20474;-50
2023/04/18 07:47:43;;;;;;;10.90;10.50;;;19.10;58.40;;;;;;5091654;28;20438;-51
2023/04/18 07:50:11;;;;;;;11.00;10.50;;;19.10;58.40;;;;;;5092132;28;20549;-50
2023/04/18 07:52:38;;;;;;;10.17;9.87;;;19.10;58.40;;;;;;5092159;28;20442;-51
2023/04/18 07:55:05;;;;;;;11.13;10.63;;;19.10;58.30;;;;;;5091852;28;20874;-53
2023/04/18 07:57:32;;;;;;;11.67;11.27;;;19.10;58.30;;;;;;5091390;28;20538;-55
2023/04/18 08:00:01;;;;;;;10.13;9.83;;;19.10;58.20;;;;;;5091618;28;20478;-51
2023/04/18 08:02:28;;;;;;;10.07;9.77;;;19.10;58.20;;;;;;5091764;28;20474;-50
2023/04/18 08:04:55;;;;;;;10.20;9.90;;;19.10;58.20;;;;;;5091534;28;20537;-53
2023/04/18 08:07:21;;;;;;;10.60;10.10;;;19.10;58.20;;;;;;5091606;28;20559;-55
2023/04/18 08:09:48;;;;;;;9.87;9.57;;;19.10;58.70;;;;;;5091419;28;20508;-56
2023/04/18 08:12:15;;;;;;;10.00;9.60;;;19.10;58.10;;;;;;5091470;28;20462;-50
2023/04/18 08:14:42;;;;;;;10.43;10.10;;;19.20;58.10;;;;;;5091475;28;20525;-51
2023/04/18 08:17:10;;;;;;;9.80;9.50;;;19.20;58.10;;;;;;5091184;28;20478;-57
2023/04/18 08:19:37;;;;;;;10.50;9.77;;;19.10;58.00;;;;;;5091204;28;20509;-53
2023/04/18 08:22:09;;;;;;;9.67;9.37;;;19.10;58.00;;;;;;5091356;28;20474;-50
2023/04/18 08:24:37;;;;;;;9.80;9.40;;;19.10;58.00;;;;;;5091676;28;20477;-52
2023/04/18 08:27:04;;;;;;;9.47;9.17;;;19.10;57.90;;;;;;5091296;28;20482;-51
2023/04/18 08:29:31;;;;;;;10.37;9.97;;;19.20;58.00;;;;;;5091165;28;20968;-50
2023/04/18 08:31:58;;;;;;;10.77;10.37;;;19.20;57.90;;;;;;5091283;28;20485;-49
2023/04/18 08:34:27;;;;;;;10.23;9.73;;;19.20;57.90;;;;;;5091306;28;20474;-50
2023/04/18 08:36:55;;;;;;;11.10;10.30;;;19.10;57.80;;;;;;5091179;28;21012;-51
2023/04/18 08:39:22;;;;;;;10.50;10.10;;;19.10;57.80;;;;;;5091067;28;20557;-51
2023/04/18 08:41:58;;;;;;;9.97;9.67;;;19.10;57.80;;;;;;5091315;28;20529;-51
2023/04/18 08:44:25;;;;;;;10.40;10.00;;;19.20;57.90;;;;;;5091291;28;20442;-50
2023/04/18 08:46:53;;;;;;;10.87;10.27;;;19.10;57.70;;;;;;5091018;28;20450;-51
2023/04/18 08:49:21;;;;;;;9.77;9.47;;;19.10;57.70;;;;;;5091209;28;20479;-54
2023/04/18 08:51:50;;;;;;;10.50;10.10;;;19.20;57.80;;;;;;5094963;28;20489;-52
2023/04/18 08:54:18;;;;;;;10.33;10.03;;;19.20;57.70;;;;;;5094992;28;20949;-51
2023/04/18 08:56:45;;;;;;;10.63;10.23;;;19.10;57.60;;;;;;5094910;28;20478;-51
2023/04/18 08:59:12;;;;;;;9.90;9.60;;;19.10;57.60;;;;;;5094619;28;20561;-53
2023/04/18 09:01:56;;;;;;;9.60;9.40;;;19.10;57.60;;;;;;5094814;28;20930;-50
2023/04/18 09:04:34;;;;;;;11.03;10.50;;;19.10;57.60;;;;;;5094782;28;20446;-50
2023/04/18 09:07:03;;;;;;;10.53;10.03;;;19.10;57.60;;;;;;5094520;28;20477;-50
2023/04/18 09:09:41;;;;;;;9.90;9.60;;;19.10;57.50;;;;;;5094539;28;20891;-50
2023/04/18 09:12:10;;;;;;;11.37;10.57;;;19.10;57.50;;;;;;5094652;28;20807;-50
2023/04/18 09:14:41;;;;;;;10.03;9.73;;;19.10;57.50;;;;;;5094730;28;20446;-52
2023/04/18 09:17:08;;;;;;;10.20;9.90;;;19.10;57.50;;;;;;5094451;28;20447;-53
2023/04/18 09:19:37;;;;;;;10.43;10.07;;;19.10;57.50;;;;;;5094308;28;20513;-50
2023/04/18 09:22:07;;;;;;;10.73;10.13;;;19.10;57.40;;;;;;5094740;28;20453;-50
2023/04/18 09:24:33;;;;;;;9.73;9.40;;;19.10;57.40;;;;;;5094381;28;20447;-51
2023/04/18 09:27:02;;;;;;;10.03;9.70;;;19.10;57.40;;;;;;5094395;28;20743;-51
2023/04/18 09:29:45;;;;;;;9.60;9.30;;;19.10;57.40;;;;;;5094110;28;20497;-50
2023/04/18 09:32:23;;;;;;;11.10;10.70;;;19.10;57.40;;;;;;5094245;28;20442;-50
2023/04/18 09:34:53;;;;;;;10.30;10.00;;;19.10;57.30;;;;;;5094229;28;20442;-50
2023/04/18 09:37:21;;;;;;;9.47;9.20;;;19.10;57.30;;;;;;5093934;28;20929;-51
2023/04/18 09:39:49;;;;;;;9.90;9.60;;;19.10;57.30;;;;;;5093866;28;20490;-51
2023/04/18 09:42:17;;;;;;;10.90;10.50;;;19.10;57.30;;;;;;5094001;28;20452;-52
2023/04/18 09:45:05;;;;;;;11.10;10.50;;;19.10;57.30;;;;;;5094033;28;20481;-55
2023/04/18 09:47:35;;;;;;;10.70;10.40;;;19.10;57.30;;;;;;5087823;28;20489;-54
2023/04/18 09:50:03;;;;;;;11.67;11.27;;;19.10;57.20;;;;;;5093775;28;21061;-54
2023/04/18 09:52:35;;;;;;;12.30;11.90;;;19.10;57.20;;;;;;5093836;28;20474;-52
2023/04/18 09:55:04;;;;;;;12.23;11.83;;;19.10;57.20;;;;;;5093740;28;20930;-52
2023/04/18 09:57:31;;;;;;;11.90;11.57;;;19.10;57.20;;;;;;5094014;28;20439;-51
2023/04/18 10:00:12;;;;;;;12.60;12.20;;;19.10;57.20;;;;;;5093516;28;20517;-53
2023/04/18 10:02:48;;;;;;;12.57;12.27;;;19.10;57.10;;;;;;5093571;28;20533;-51
2023/04/18 10:05:15;;;;;;;11.77;11.47;;;19.10;57.10;;;;;;5093546;28;20456;-53
2023/04/18 10:07:46;;;;;;;12.70;12.20;;;19.10;57.10;;;;;;5093379;28;20453;-53
2023/04/18 10:10:13;;;;;;;13.00;12.60;;;19.10;57.10;;;;;;5093658;28;20981;-50
2023/04/18 10:12:41;;;;;;;13.40;12.90;;;19.10;57.10;;;;;;5093387;28;20521;-53
2023/04/18 10:15:09;;;;;;;13.00;12.50;;;19.10;57.00;;;;;;5093443;28;20442;-52
2023/04/18 10:17:43;;;;;;;13.50;13.00;;;19.10;57.00;;;;;;5093068;28;20454;-50
2023/04/18 10:20:19;;;;;;;12.63;12.23;;;19.10;57.00;;;;;;5093114;28;20514;-51
2023/04/18 10:22:47;;;;;;;12.23;11.93;;;19.10;57.00;;;;;;5093288;28;20446;-52
2023/04/18 10:25:35;;;;;;;13.30;12.90;;;19.10;57.00;;;;;;5093255;28;20470;-52
2023/04/18 10:28:04;;;;;;;12.20;11.90;;;19.10;57.00;;;;;;5092999;28;20477;-54
2023/04/18 10:30:53;;;;;;;13.17;12.60;;;19.10;57.00;;;;;;5092996;28;20474;-50
2023/04/18 10:33:26;;;;;;;12.23;11.93;;;19.10;57.00;;;;;;5093019;28;20526;-53
2023/04/18 10:35:57;;;;;;;13.03;12.53;;;19.10;57.00;;;;;;5092937;28;20482;-51
2023/04/18 10:38:26;;;;;;;12.70;12.30;;;19.10;57.00;;;;;;5092526;28;20438;-50
2023/04/18 10:40:53;;;;;;;13.00;12.60;;;19.10;57.00;;;;;;5092767;28;20443;-55
2023/04/18 10:43:20;;;;;;;12.10;11.70;;;19.10;56.90;;;;;;5092814;28;20470;-50
2023/04/18 10:46:10;;;;;;;12.83;12.43;;;19.10;56.90;;;;;;5092767;28;20481;-53
2023/04/18 10:48:38;;;;;;;11.97;11.67;;;19.10;56.90;;;;;;5092397;28;20921;-50
2023/04/18 10:51:22;;;;;;;12.93;12.43;;;19.10;56.80;;;;;;5092678;28;20447;-49
2023/04/18 10:53:55;;;;;;;12.60;12.20;;;19.10;56.80;;;;;;5092650;28;20481;-52
2023/04/18 10:56:22;;;;;;;12.20;11.80;;;19.20;56.90;;;;;;5092608;28;20443;-50
2023/04/18 10:58:51;;;;;;;12.63;12.27;;;19.10;56.90;;;;;;5092397;28;20517;-53
2023/04/18 11:01:25;;;;;;;12.87;12.47;;;19.10;56.80;;;;;;5092478;28;20481;-49
2023/04/18 11:03:53;;;;;;;12.70;12.30;;;19.20;56.80;;;;;;5092526;28;20443;-50
2023/04/18 11:06:21;;;;;;;12.50;12.20;;;19.20;56.90;;;;;;5092500;28;20446;-50
2023/04/18 11:08:50;;;;;;;12.50;12.10;;;19.20;56.90;;;;;;5092003;28;20493;-50
2023/04/18 11:11:16;;;;;;;13.27;12.87;;;19.10;56.80;;;;;;5092281;28;20477;-50
2023/04/18 11:13:57;;;;;;;12.60;12.23;;;19.20;56.80;;;;;;5091772;28;20478;-53
2023/04/18 11:16:27;;;;;;;12.87;12.47;;;19.20;56.80;;;;;;5092211;28;20438;-55
2023/04/18 11:18:54;;;;;;;13.13;12.73;;;19.20;56.70;;;;;;5091884;28;20525;-50
2023/04/18 11:21:21;;;;;;;12.67;12.27;;;19.20;56.80;;;;;;5092256;28;20529;-55
2023/04/18 11:23:50;;;;;;;12.10;11.80;;;19.20;56.70;;;;;;5092112;28;20530;-55
2023/04/18 11:26:18;;;;;;;12.60;12.20;;;19.20;56.70;;;;;;5092062;28;20481;-55
2023/04/18 11:28:51;;;;;;;11.90;11.60;;;19.20;56.70;;;;;;5091789;28;20888;-51
2023/04/18 11:31:18;;;;;;;12.57;12.17;;;19.20;56.70;;;;;;5092000;28;20442;-53
2023/04/18 11:33:46;;;;;;;12.20;11.90;;;19.20;56.60;;;;;;5091892;28;20442;-50
2023/04/18 11:36:13;;;;;;;12.47;12.07;;;19.20;56.60;;;;;;5091985;28;20446;-50
2023/04/18 11:38:40;;;;;;;12.50;12.10;;;19.20;56.60;;;;;;5091860;28;20558;-57
2023/04/18 11:41:14;;;;;;;12.60;12.20;;;19.20;56.70;;;;;;5091885;28;20947;-54
2023/04/18 11:43:43;;;;;;;12.20;11.80;;;19.20;56.60;;;;;;5091803;28;20442;-53
2023/04/18 11:46:10;;;;;;;12.80;12.40;;;19.20;56.60;;;;;;5091738;28;20808;-56
2023/04/18 11:48:38;;;;;;;13.00;12.60;;;19.20;56.60;;;;;;5091424;28;20500;-55
2023/04/18 11:51:06;;;;;;;13.17;12.67;;;19.20;56.60;;;;;;5091734;28;20499;-55
2023/04/18 11:53:33;;;;;;;12.60;12.10;;;19.20;56.60;;;;;;5091632;28;20442;-54
2023/04/18 11:56:02;;;;;;;12.97;12.53;;;19.20;56.50;;;;;;5091712;28;20446;-56
2023/04/18 11:58:34;;;;;;;12.00;11.70;;;19.20;56.50;;;;;;5091312;28;20949;-52
2023/04/18 12:01:16;;;;;;;12.50;12.10;;;19.20;56.50;;;;;;5091546;28;20669;-55
2023/04/18 12:03:43;;;;;;;12.67;12.30;;;19.20;56.50;;;;;;5091721;28;20515;-52
2023/04/18 12:06:10;;;;;;;13.07;12.67;;;19.20;56.50;;;;;;5091565;28;20478;-58
2023/04/18 12:08:37;;;;;;;12.53;12.10;;;19.20;56.40;;;;;;5091206;28;20511;-56
2023/04/18 12:11:04;;;;;;;13.27;12.67;;;19.20;56.40;;;;;;5091677;28;20886;-56
2023/04/18 12:13:34;;;;;;;12.50;12.10;;;19.20;56.50;;;;;;5091408;28;20478;-55
2023/04/18 12:16:02;;;;;;;12.97;12.57;;;19.30;56.50;;;;;;5091567;28;20445;-55
2023/04/18 12:18:30;;;;;;;13.00;12.60;;;19.20;56.40;;;;;;5091187;28;20976;-56
2023/04/18 12:21:00;;;;;;;11.83;11.47;;;19.20;56.40;;;;;;5091437;28;20482;-52
2023/04/18 12:23:32;;;;;;;12.67;12.30;;;19.30;56.50;;;;;;5091646;28;20447;-53
2023/04/18 12:26:00;;;;;;;12.90;12.50;;;19.30;56.40;;;;;;5094580;28;20478;-53
2023/04/18 12:28:27;;;;;;;12.50;12.20;;;19.20;56.40;;;;;;5095204;28;20987;-53
2023/04/18 12:30:55;;;;;;;12.87;12.47;;;19.20;56.40;;;;;;5095411;28;20481;-56
2023/04/18 12:33:23;;;;;;;12.50;12.20;;;19.20;56.40;;;;;;5095378;28;20503;-52
2023/04/18 12:35:51;;;;;;;12.83;12.37;;;19.30;56.40;;;;;;5095238;28;20474;-55
2023/04/18 12:38:20;;;;;;;12.23;11.87;;;19.30;56.40;;;;;;5095110;28;20473;-56